Aviation Digital Data Service (ADDS)

Output produced by TAFs form (2234 UTC 30 April 2016)
found at http://aviationweather.gov/adds/tafs/
 
KVEL 301728Z 3018/0118 04009G20KT P6SM BKN070 
     FM302100 04014G24KT P6SM BKN070 
     FM010600 03017G27KT P6SM SCT110 
     FM010800 03017G27KT P6SM BKN100